ARG1619 SAZB-SABE
Flight info
| Callsign | ARG1619 |
|---|---|
| Flight time | 0h 54m |
| Altitude | 31000 |
| Route | PULAS1C PULAS UW22 VALOS VALOS9Q |
| Aircraft | B738/M-SDFGHILORVW/S |
Departure
| Time | 2026-05-06 22:14 |
|---|---|
| Airport | Comandante Espora Airport (SAZB) |
Arrival
| Time | 2026-05-06 23:08 |
|---|---|
| Airport | Aeroparque Jorge Newbery (SABE) |
| Time | Latitude | Longitude | Altitude | Speed | Heading |
|---|---|---|---|---|---|
| 2026-05-06 21:35 | -38.71645 | -62.16303 | 256 ft | 0 kts | 277° |
| 2026-05-06 22:07 | -38.71646 | -62.16297 | 256 ft | 2 kts | 277° |
| 2026-05-06 22:07 | -38.71648 | -62.16278 | 256 ft | 2 kts | 277° |
| 2026-05-06 22:08 | -38.71652 | -62.16259 | 257 ft | 2 kts | 306° |
| 2026-05-06 22:08 | -38.71663 | -62.16246 | 257 ft | 2 kts | 337° |
| 2026-05-06 22:08 | -38.71675 | -62.16243 | 257 ft | 0 kts | 4° |
| 2026-05-06 22:08 | -38.71682 | -62.16244 | 257 ft | 1 kts | 8° |
| 2026-05-06 22:09 | -38.71684 | -62.16244 | 257 ft | 0 kts | 8° |
| 2026-05-06 22:11 | -38.71682 | -62.16244 | 257 ft | 1 kts | 8° |
| 2026-05-06 22:12 | -38.71656 | -62.16235 | 257 ft | 5 kts | 39° |
| 2026-05-06 22:12 | -38.71648 | -62.16163 | 259 ft | 10 kts | 97° |
| 2026-05-06 22:12 | -38.71653 | -62.16074 | 259 ft | 8 kts | 81° |
| 2026-05-06 22:12 | -38.71628 | -62.16009 | 259 ft | 7 kts | 57° |
| 2026-05-06 22:13 | -38.71600 | -62.15955 | 258 ft | 7 kts | 56° |
| 2026-05-06 22:13 | -38.71576 | -62.15903 | 257 ft | 8 kts | 64° |
| 2026-05-06 22:13 | -38.71561 | -62.15804 | 255 ft | 13 kts | 116° |
| 2026-05-06 22:13 | -38.71752 | -62.15702 | 255 ft | 63 kts | 162° |
| 2026-05-06 22:14 | -38.72411 | -62.15461 | 252 ft | 131 kts | 162° |
| 2026-05-06 22:14 | -38.73457 | -62.15087 | 368 ft | 171 kts | 160° |
| 2026-05-06 22:14 | -38.74575 | -62.14651 | 1054 ft | 169 kts | 145° |
| 2026-05-06 22:14 | -38.75290 | -62.13584 | 1613 ft | 159 kts | 99° |
| 2026-05-06 22:15 | -38.75180 | -62.12154 | 1865 ft | 173 kts | 64° |
| 2026-05-06 22:15 | -38.74567 | -62.10643 | 1968 ft | 208 kts | 62° |
| 2026-05-06 22:15 | -38.73895 | -62.08904 | 2415 ft | 228 kts | 62° |
| 2026-05-06 22:15 | -38.73153 | -62.07021 | 3004 ft | 242 kts | 62° |
| 2026-05-06 22:16 | -38.72381 | -62.05081 | 3706 ft | 250 kts | 61° |
| 2026-05-06 22:16 | -38.71581 | -62.03097 | 4436 ft | 256 kts | 58° |
| 2026-05-06 22:16 | -38.70404 | -62.01388 | 5139 ft | 259 kts | 32° |
| 2026-05-06 22:16 | -38.68840 | -62.00280 | 5953 ft | 260 kts | 27° |
| 2026-05-06 22:17 | -38.67242 | -61.99120 | 6675 ft | 267 kts | 28° |
| 2026-05-06 22:17 | -38.65621 | -61.97927 | 7424 ft | 272 kts | 28° |
| 2026-05-06 22:17 | -38.63932 | -61.96695 | 8189 ft | 277 kts | 28° |
| 2026-05-06 22:17 | -38.62246 | -61.95467 | 8937 ft | 282 kts | 28° |
| 2026-05-06 22:18 | -38.60510 | -61.94202 | 9701 ft | 287 kts | 28° |
| 2026-05-06 22:18 | -38.58755 | -61.92926 | 10139 ft | 305 kts | 28° |
| 2026-05-06 22:18 | -38.56809 | -61.91512 | 10349 ft | 329 kts | 28° |
| 2026-05-06 22:18 | -38.54792 | -61.90046 | 10819 ft | 343 kts | 28° |
| 2026-05-06 22:19 | -38.52687 | -61.88516 | 11462 ft | 351 kts | 28° |
| 2026-05-06 22:19 | -38.50555 | -61.86968 | 12177 ft | 356 kts | 29° |
| 2026-05-06 22:19 | -38.48416 | -61.85416 | 12918 ft | 360 kts | 29° |
| 2026-05-06 22:19 | -38.46223 | -61.83826 | 13664 ft | 364 kts | 28° |
| 2026-05-06 22:20 | -38.44022 | -61.82232 | 14395 ft | 369 kts | 28° |
| 2026-05-06 22:20 | -38.41766 | -61.80600 | 15126 ft | 373 kts | 28° |
| 2026-05-06 22:20 | -38.39511 | -61.78968 | 15828 ft | 377 kts | 28° |
| 2026-05-06 22:20 | -38.37238 | -61.77326 | 16505 ft | 381 kts | 28° |
| 2026-05-06 22:21 | -38.34916 | -61.75649 | 17173 ft | 384 kts | 28° |
| 2026-05-06 22:21 | -38.32567 | -61.73953 | 17819 ft | 388 kts | 28° |
| 2026-05-06 22:21 | -38.30213 | -61.72257 | 18442 ft | 392 kts | 28° |
| 2026-05-06 22:21 | -38.27851 | -61.70554 | 19043 ft | 396 kts | 28° |
| 2026-05-06 22:22 | -38.25437 | -61.68816 | 19633 ft | 399 kts | 28° |
| 2026-05-06 22:22 | -38.23002 | -61.67064 | 20208 ft | 403 kts | 28° |
| 2026-05-06 22:22 | -38.20573 | -61.65319 | 20755 ft | 406 kts | 28° |
| 2026-05-06 22:22 | -38.18089 | -61.63534 | 21297 ft | 410 kts | 28° |
| 2026-05-06 22:23 | -38.15612 | -61.61756 | 21814 ft | 413 kts | 28° |
| 2026-05-06 22:23 | -38.13127 | -61.59974 | 22315 ft | 416 kts | 28° |
| 2026-05-06 22:23 | -38.10599 | -61.58162 | 22806 ft | 419 kts | 28° |
| 2026-05-06 22:23 | -38.08023 | -61.56318 | 23286 ft | 423 kts | 28° |
| 2026-05-06 22:24 | -38.05470 | -61.54491 | 23748 ft | 426 kts | 28° |
| 2026-05-06 22:24 | -38.02877 | -61.52638 | 24197 ft | 429 kts | 28° |
| 2026-05-06 22:24 | -38.00270 | -61.50776 | 24633 ft | 432 kts | 28° |
| 2026-05-06 22:24 | -37.97606 | -61.48871 | 25074 ft | 434 kts | 28° |
| 2026-05-06 22:25 | -37.95059 | -61.46835 | 25470 ft | 438 kts | 33° |
| 2026-05-06 22:25 | -37.92551 | -61.44565 | 25883 ft | 441 kts | 34° |
| 2026-05-06 22:25 | -37.90016 | -61.42267 | 26270 ft | 444 kts | 34° |
| 2026-05-06 22:25 | -37.87491 | -61.40027 | 26849 ft | 441 kts | 33° |
| 2026-05-06 22:26 | -37.85000 | -61.37827 | 27396 ft | 439 kts | 33° |
| 2026-05-06 22:26 | -37.82480 | -61.35598 | 27893 ft | 439 kts | 33° |
| 2026-05-06 22:26 | -37.79986 | -61.33392 | 28396 ft | 437 kts | 33° |
| 2026-05-06 22:26 | -37.77503 | -61.31200 | 28862 ft | 436 kts | 33° |
| 2026-05-06 22:27 | -37.74997 | -61.28991 | 29322 ft | 436 kts | 33° |
| 2026-05-06 22:27 | -37.72537 | -61.26825 | 29761 ft | 435 kts | 33° |
| 2026-05-06 22:27 | -37.70033 | -61.24622 | 30198 ft | 434 kts | 33° |
| 2026-05-06 22:27 | -37.67574 | -61.22461 | 30617 ft | 433 kts | 32° |
| 2026-05-06 22:28 | -37.65106 | -61.20295 | 30743 ft | 437 kts | 32° |
| 2026-05-06 22:28 | -37.62568 | -61.18069 | 30748 ft | 438 kts | 32° |
| 2026-05-06 22:28 | -37.57593 | -61.13710 | 30750 ft | 434 kts | 32° |
| 2026-05-06 22:29 | -37.52629 | -61.09369 | 30750 ft | 435 kts | 32° |
| 2026-05-06 22:29 | -37.47631 | -61.05006 | 30750 ft | 437 kts | 32° |
| 2026-05-06 22:30 | -37.42613 | -61.00633 | 30750 ft | 438 kts | 31° |
| 2026-05-06 22:30 | -37.37593 | -60.96265 | 30749 ft | 439 kts | 31° |
| 2026-05-06 22:31 | -37.32557 | -60.91890 | 30750 ft | 439 kts | 31° |
| 2026-05-06 22:31 | -37.27518 | -60.87520 | 30750 ft | 438 kts | 31° |
| 2026-05-06 22:32 | -37.22497 | -60.83173 | 30750 ft | 438 kts | 31° |
| 2026-05-06 22:32 | -37.17447 | -60.78809 | 30750 ft | 439 kts | 31° |
| 2026-05-06 22:33 | -37.12420 | -60.74471 | 30750 ft | 439 kts | 31° |
| 2026-05-06 22:33 | -37.07387 | -60.70134 | 30750 ft | 438 kts | 31° |
| 2026-05-06 22:34 | -37.02354 | -60.65806 | 30750 ft | 438 kts | 31° |
| 2026-05-06 22:34 | -36.97343 | -60.61502 | 30750 ft | 437 kts | 31° |
| 2026-05-06 22:35 | -36.92313 | -60.57190 | 30750 ft | 437 kts | 31° |
| 2026-05-06 22:35 | -36.87296 | -60.52897 | 30750 ft | 437 kts | 31° |
| 2026-05-06 22:36 | -36.82286 | -60.48617 | 30750 ft | 437 kts | 31° |
| 2026-05-06 22:36 | -36.77255 | -60.44325 | 30724 ft | 438 kts | 31° |
| 2026-05-06 22:37 | -36.72182 | -60.40005 | 30683 ft | 438 kts | 31° |
| 2026-05-06 22:37 | -36.67130 | -60.35710 | 30655 ft | 439 kts | 31° |
| 2026-05-06 22:38 | -36.62086 | -60.31427 | 30642 ft | 438 kts | 30° |
| 2026-05-06 22:38 | -36.57046 | -60.27155 | 30643 ft | 439 kts | 30° |
| 2026-05-06 22:39 | -36.51960 | -60.22984 | 30642 ft | 437 kts | 27° |
| 2026-05-06 22:39 | -36.46706 | -60.19111 | 30641 ft | 437 kts | 27° |
| 2026-05-06 22:40 | -36.41508 | -60.15199 | 30641 ft | 434 kts | 27° |
| 2026-05-06 22:40 | -36.36301 | -60.11283 | 30642 ft | 434 kts | 27° |
| 2026-05-06 22:41 | -36.28551 | -60.05455 | 30642 ft | 434 kts | 27° |
| 2026-05-06 22:42 | -36.23361 | -60.01555 | 30641 ft | 434 kts | 27° |
| 2026-05-06 22:42 | -36.18161 | -59.97652 | 30642 ft | 434 kts | 27° |
| 2026-05-06 22:43 | -36.12990 | -59.93776 | 30642 ft | 435 kts | 27° |
| 2026-05-06 22:43 | -36.07790 | -59.89884 | 30642 ft | 435 kts | 27° |
| 2026-05-06 22:44 | -36.02596 | -59.86003 | 30642 ft | 435 kts | 27° |
| 2026-05-06 22:44 | -35.97436 | -59.82152 | 30642 ft | 435 kts | 27° |
| 2026-05-06 22:45 | -35.92264 | -59.78299 | 30642 ft | 435 kts | 27° |
| 2026-05-06 22:45 | -35.87961 | -59.75097 | 30641 ft | 435 kts | 27° |
| 2026-05-06 22:46 | -35.83781 | -59.71991 | 30641 ft | 435 kts | 27° |
| 2026-05-06 22:46 | -35.78605 | -59.68151 | 30647 ft | 435 kts | 27° |
| 2026-05-06 22:47 | -35.73360 | -59.64265 | 30650 ft | 436 kts | 27° |
| 2026-05-06 22:47 | -35.68173 | -59.60425 | 30157 ft | 428 kts | 27° |
| 2026-05-06 22:47 | -35.65652 | -59.58561 | 29591 ft | 424 kts | 27° |
| 2026-05-06 22:48 | -35.63124 | -59.56695 | 29006 ft | 421 kts | 27° |
| 2026-05-06 22:48 | -35.60617 | -59.54845 | 28420 ft | 418 kts | 27° |
| 2026-05-06 22:48 | -35.58113 | -59.53000 | 27834 ft | 415 kts | 27° |
| 2026-05-06 22:48 | -35.55676 | -59.51204 | 27264 ft | 412 kts | 27° |
| 2026-05-06 22:49 | -35.53213 | -59.49391 | 26685 ft | 408 kts | 28° |
| 2026-05-06 22:49 | -35.50771 | -59.47595 | 26110 ft | 405 kts | 28° |
| 2026-05-06 22:49 | -35.48348 | -59.45814 | 25539 ft | 402 kts | 28° |
| 2026-05-06 22:49 | -35.45973 | -59.44069 | 24975 ft | 399 kts | 28° |
| 2026-05-06 22:50 | -35.43584 | -59.42316 | 24404 ft | 396 kts | 28° |
| 2026-05-06 22:50 | -35.41228 | -59.40587 | 23843 ft | 393 kts | 28° |
| 2026-05-06 22:50 | -35.38892 | -59.38876 | 23285 ft | 390 kts | 28° |
| 2026-05-06 22:50 | -35.36551 | -59.37161 | 22727 ft | 387 kts | 28° |
| 2026-05-06 22:51 | -35.34241 | -59.35469 | 22174 ft | 384 kts | 28° |
| 2026-05-06 22:51 | -35.31932 | -59.33781 | 21625 ft | 381 kts | 28° |
| 2026-05-06 22:51 | -35.29664 | -59.32122 | 21083 ft | 378 kts | 28° |
| 2026-05-06 22:51 | -35.27423 | -59.30486 | 20551 ft | 374 kts | 28° |
| 2026-05-06 22:52 | -35.25174 | -59.28844 | 20015 ft | 371 kts | 28° |
| 2026-05-06 22:52 | -35.22946 | -59.27218 | 19483 ft | 368 kts | 28° |
| 2026-05-06 22:52 | -35.20771 | -59.25632 | 18963 ft | 365 kts | 28° |
| 2026-05-06 22:52 | -35.18574 | -59.24031 | 18432 ft | 362 kts | 29° |
| 2026-05-06 22:53 | -35.16444 | -59.22481 | 17921 ft | 358 kts | 29° |
| 2026-05-06 22:53 | -35.14297 | -59.20919 | 17404 ft | 355 kts | 29° |
| 2026-05-06 22:53 | -35.12159 | -59.19363 | 16890 ft | 352 kts | 29° |
| 2026-05-06 22:53 | -35.10084 | -59.17855 | 16390 ft | 349 kts | 29° |
| 2026-05-06 22:54 | -35.07987 | -59.16332 | 15885 ft | 346 kts | 29° |
| 2026-05-06 22:54 | -35.05927 | -59.14836 | 15389 ft | 343 kts | 29° |
| 2026-05-06 22:54 | -35.03875 | -59.13347 | 14894 ft | 340 kts | 30° |
| 2026-05-06 22:54 | -35.01850 | -59.11879 | 14405 ft | 337 kts | 29° |
| 2026-05-06 22:55 | -34.99867 | -59.10442 | 13924 ft | 334 kts | 29° |
| 2026-05-06 22:55 | -34.97851 | -59.08981 | 13440 ft | 330 kts | 29° |
| 2026-05-06 22:55 | -34.95887 | -59.07560 | 12969 ft | 327 kts | 29° |
| 2026-05-06 22:55 | -34.93948 | -59.06156 | 12498 ft | 323 kts | 29° |
| 2026-05-06 22:56 | -34.92005 | -59.04752 | 12027 ft | 320 kts | 30° |
| 2026-05-06 22:56 | -34.90105 | -59.03378 | 11565 ft | 316 kts | 30° |
| 2026-05-06 22:56 | -34.88211 | -59.02010 | 11105 ft | 313 kts | 30° |
| 2026-05-06 22:56 | -34.86338 | -59.00658 | 10649 ft | 310 kts | 30° |
| 2026-05-06 22:57 | -34.84503 | -58.99334 | 10201 ft | 306 kts | 30° |
| 2026-05-06 22:57 | -34.82674 | -58.98015 | 9898 ft | 298 kts | 30° |
| 2026-05-06 22:57 | -34.80927 | -58.96755 | 9734 ft | 286 kts | 30° |
| 2026-05-06 22:57 | -34.79212 | -58.95520 | 9383 ft | 282 kts | 30° |
| 2026-05-06 22:58 | -34.77520 | -58.94302 | 9011 ft | 279 kts | 30° |
| 2026-05-06 22:58 | -34.75843 | -58.93095 | 8650 ft | 276 kts | 30° |
| 2026-05-06 22:58 | -34.74199 | -58.91913 | 8294 ft | 274 kts | 30° |
| 2026-05-06 22:58 | -34.72562 | -58.90736 | 7940 ft | 271 kts | 30° |
| 2026-05-06 22:59 | -34.70940 | -58.89570 | 7589 ft | 268 kts | 30° |
| 2026-05-06 22:59 | -34.69316 | -58.88403 | 7239 ft | 266 kts | 30° |
| 2026-05-06 22:59 | -34.67735 | -58.87267 | 6898 ft | 263 kts | 30° |
| 2026-05-06 22:59 | -34.66159 | -58.86136 | 6557 ft | 261 kts | 30° |
| 2026-05-06 23:00 | -34.64593 | -58.85012 | 6218 ft | 259 kts | 30° |
| 2026-05-06 23:00 | -34.63036 | -58.83896 | 5882 ft | 256 kts | 30° |
| 2026-05-06 23:00 | -34.61495 | -58.82791 | 5549 ft | 255 kts | 30° |
| 2026-05-06 23:00 | -34.59966 | -58.81696 | 5219 ft | 259 kts | 30° |
| 2026-05-06 23:01 | -34.58407 | -58.80579 | 4878 ft | 257 kts | 30° |
| 2026-05-06 23:01 | -34.56884 | -58.79466 | 4544 ft | 254 kts | 34° |
| 2026-05-06 23:01 | -34.55677 | -58.77959 | 4283 ft | 250 kts | 56° |
| 2026-05-06 23:01 | -34.54765 | -58.76176 | 4204 ft | 253 kts | 57° |
| 2026-05-06 23:02 | -34.53797 | -58.74339 | 4100 ft | 250 kts | 56° |
| 2026-05-06 23:02 | -34.52875 | -58.72592 | 4021 ft | 251 kts | 57° |
| 2026-05-06 23:02 | -34.51928 | -58.70796 | 3922 ft | 245 kts | 57° |
| 2026-05-06 23:02 | -34.51026 | -58.69086 | 3838 ft | 233 kts | 56° |
| 2026-05-06 23:03 | -34.50178 | -58.67479 | 3768 ft | 218 kts | 56° |
| 2026-05-06 23:03 | -34.49383 | -58.65974 | 3650 ft | 206 kts | 56° |
| 2026-05-06 23:03 | -34.48645 | -58.64576 | 3627 ft | 194 kts | 56° |
| 2026-05-06 23:03 | -34.47928 | -58.63220 | 3491 ft | 184 kts | 56° |
| 2026-05-06 23:04 | -34.47255 | -58.61946 | 3294 ft | 172 kts | 56° |
| 2026-05-06 23:04 | -34.46610 | -58.60726 | 3141 ft | 170 kts | 57° |
| 2026-05-06 23:04 | -34.46227 | -58.59365 | 2951 ft | 172 kts | 91° |
| 2026-05-06 23:04 | -34.46668 | -58.58031 | 2982 ft | 178 kts | 127° |
| 2026-05-06 23:05 | -34.47407 | -58.56851 | 2851 ft | 171 kts | 120° |
| 2026-05-06 23:05 | -34.48050 | -58.55664 | 2635 ft | 160 kts | 122° |
| 2026-05-06 23:05 | -34.48664 | -58.54564 | 2410 ft | 156 kts | 122° |
| 2026-05-06 23:05 | -34.49268 | -58.53486 | 2194 ft | 154 kts | 122° |
| 2026-05-06 23:06 | -34.49879 | -58.52393 | 1980 ft | 153 kts | 122° |
| 2026-05-06 23:06 | -34.50476 | -58.51325 | 1770 ft | 152 kts | 122° |
| 2026-05-06 23:06 | -34.51072 | -58.50261 | 1562 ft | 151 kts | 122° |
| 2026-05-06 23:06 | -34.51662 | -58.49205 | 1356 ft | 151 kts | 122° |
| 2026-05-06 23:07 | -34.52254 | -58.48146 | 1150 ft | 150 kts | 122° |
| 2026-05-06 23:07 | -34.52832 | -58.47111 | 949 ft | 149 kts | 122° |
| 2026-05-06 23:07 | -34.53412 | -58.46074 | 749 ft | 148 kts | 122° |
| 2026-05-06 23:07 | -34.53986 | -58.45034 | 541 ft | 147 kts | 122° |
| 2026-05-06 23:08 | -34.54558 | -58.44008 | 345 ft | 145 kts | 123° |
| 2026-05-06 23:08 | -34.55127 | -58.42993 | 148 ft | 142 kts | 123° |
| 2026-05-06 23:08 | -34.55661 | -58.42041 | 28 ft | 122 kts | 123° |
| 2026-05-06 23:08 | -34.55986 | -58.41459 | 27 ft | 47 kts | 124° |
| 2026-05-06 23:09 | -34.56148 | -58.41170 | 27 ft | 29 kts | 124° |
| 2026-05-06 23:09 | -34.56205 | -58.41027 | 27 ft | 15 kts | 111° |
| 2026-05-06 23:09 | -34.56228 | -58.40918 | 27 ft | 11 kts | 100° |
| 2026-05-06 23:09 | -34.56233 | -58.40848 | 27 ft | 5 kts | 92° |
| 2026-05-06 23:10 | -34.56229 | -58.40814 | 27 ft | 2 kts | 47° |
| 2026-05-06 23:10 | -34.56215 | -58.40814 | 27 ft | 2 kts | 331° |
| 2026-05-06 23:10 | -34.56205 | -58.40825 | 27 ft | 2 kts | 320° |
| 2026-05-06 23:10 | -34.56179 | -58.40863 | 27 ft | 9 kts | 300° |
| 2026-05-06 23:11 | -34.56135 | -58.40950 | 27 ft | 14 kts | 306° |
| 2026-05-06 23:11 | -34.56067 | -58.41063 | 27 ft | 16 kts | 308° |
| 2026-05-06 23:11 | -34.56002 | -58.41166 | 27 ft | 13 kts | 307° |
| 2026-05-06 23:11 | -34.55958 | -58.41239 | 27 ft | 9 kts | 307° |
| 2026-05-06 23:12 | -34.55916 | -58.41296 | 27 ft | 7 kts | 336° |
| 2026-05-06 23:12 | -34.55868 | -58.41285 | 27 ft | 6 kts | 23° |
| 2026-05-06 23:12 | -34.55833 | -58.41293 | 27 ft | 4 kts | 315° |
| 2026-05-06 23:12 | -34.55822 | -58.41310 | 27 ft | 0 kts | 306° |
| 2026-05-06 23:13 | -34.55821 | -58.41313 | 27 ft | 1 kts | 306° |
| 2026-05-06 23:13 | -34.55804 | -58.41335 | 27 ft | 4 kts | 330° |
| 2026-05-06 23:13 | -34.55776 | -58.41329 | 27 ft | 2 kts | 32° |
| 2026-05-06 23:13 | -34.55765 | -58.41320 | 27 ft | 1 kts | 34° |
| 2026-05-06 23:14 | -34.55761 | -58.41317 | 27 ft | 0 kts | 34° |
| 2026-05-06 23:14 | -34.55760 | -58.41316 | 27 ft | 0 kts | 34° |